createdAt,value
2023-03-11T00:00:39.493Z,98256.13
2023-03-11T00:03:07.370Z,98272.00
2023-03-11T00:05:37.453Z,98278.66
2023-03-11T00:08:05.392Z,98292.44
2023-03-11T00:10:35.167Z,98302.88
2023-03-11T00:13:02.800Z,98309.28
2023-03-11T00:15:30.295Z,98317.72
2023-03-11T00:17:57.637Z,98321.06
2023-03-11T00:20:30.320Z,98329.84
2023-03-11T00:22:57.431Z,98336.84
2023-03-11T00:25:26.797Z,98337.69
2023-03-11T00:27:53.297Z,98347.50
2023-03-11T00:30:21.275Z,98349.59
2023-03-11T00:32:49.096Z,98357.81
2023-03-11T00:35:18.881Z,98364.59
2023-03-11T00:37:47.574Z,98363.06
2023-03-11T00:40:19.152Z,98364.59
2023-03-11T00:42:45.785Z,98371.41
2023-03-11T00:45:13.208Z,98380.53
2023-03-11T00:47:40.106Z,98377.09
2023-03-11T00:50:09.646Z,98386.19
2023-03-11T00:52:36.210Z,98391.16
2023-03-11T00:55:02.743Z,98396.97
2023-03-11T00:57:29.201Z,98403.66
2023-03-11T00:59:56.112Z,98413.03
2023-03-11T01:02:23.373Z,98415.41
2023-03-11T01:04:55.478Z,98427.31
2023-03-11T01:07:23.039Z,98439.06
2023-03-11T01:09:49.725Z,98440.56
2023-03-11T01:12:16.287Z,98455.94
2023-03-11T01:14:42.714Z,98453.88
2023-03-11T01:17:09.334Z,98466.84
2023-03-11T01:19:35.782Z,98471.44
2023-03-11T01:22:02.296Z,98481.00
2023-03-11T01:24:28.814Z,98492.75
2023-03-11T01:26:55.276Z,98508.09
2023-03-11T01:29:21.717Z,98508.66
2023-03-11T01:31:48.184Z,98513.22
2023-03-11T01:34:14.650Z,98522.34
2023-03-11T01:36:41.078Z,98529.78
2023-03-11T01:39:07.622Z,98532.16
2023-03-11T01:41:34.335Z,98533.81
2023-03-11T01:44:00.787Z,98546.63
2023-03-11T01:46:41.442Z,98556.31
2023-03-11T01:49:12.548Z,98569.09
2023-03-11T01:51:42.727Z,98571.41
2023-03-11T01:54:13.607Z,98581.28
2023-03-11T01:56:41.866Z,98589.81
2023-03-11T01:59:11.346Z,98595.06
2023-03-11T02:01:45.999Z,98609.84
2023-03-11T02:04:13.987Z,98610.84
2023-03-11T02:07:15.584Z,98620.53
2023-03-11T02:09:42.182Z,98631.72
2023-03-11T02:12:12.469Z,98641.81
2023-03-11T02:14:43.671Z,98651.81
2023-03-11T02:17:10.304Z,98662.00
2023-03-11T02:19:59.286Z,98669.22
2023-03-11T02:22:28.319Z,98686.69
2023-03-11T02:25:05.838Z,98698.63
2023-03-11T02:27:36.323Z,98713.44
2023-03-11T02:30:03.383Z,98715.78
2023-03-11T02:32:30.115Z,98723.25
2023-03-11T02:34:56.571Z,98725.97
2023-03-11T02:37:23.231Z,98737.00
2023-03-11T02:39:52.397Z,98750.72
2023-03-11T02:42:31.689Z,98760.16
2023-03-11T02:45:04.463Z,98774.66
2023-03-11T02:47:31.390Z,98793.19
2023-03-11T02:49:57.967Z,98790.22
2023-03-11T02:52:33.552Z,98804.50
2023-03-11T02:55:00.007Z,98811.25
2023-03-11T02:57:26.794Z,98815.50
2023-03-11T02:59:53.407Z,98829.13
2023-03-11T03:02:20.250Z,98838.00
2023-03-11T03:04:46.733Z,98839.91
2023-03-11T03:07:13.159Z,98853.44
2023-03-11T03:09:39.726Z,98854.47
2023-03-11T03:12:06.677Z,98865.44
2023-03-11T03:14:33.129Z,98886.63
2023-03-11T03:16:59.794Z,98900.88
2023-03-11T03:19:26.420Z,98910.19
2023-03-11T03:21:53.134Z,98909.31
2023-03-11T03:24:19.715Z,98920.75
2023-03-11T03:26:46.279Z,98938.72
2023-03-11T03:29:12.723Z,98938.06
2023-03-11T03:31:39.323Z,98944.63
2023-03-11T03:34:07.072Z,98959.91
2023-03-11T03:36:33.635Z,98963.47
2023-03-11T03:39:01.059Z,98978.53
2023-03-11T03:41:27.930Z,98987.97
2023-03-11T03:43:54.803Z,98997.84
2023-03-11T03:46:21.784Z,99019.63
2023-03-11T03:48:48.344Z,99016.25
2023-03-11T03:51:15.780Z,99025.00
2023-03-11T03:53:42.601Z,99036.56
2023-03-11T03:56:11.863Z,99038.84
2023-03-11T03:58:38.706Z,99052.81
2023-03-11T04:01:06.963Z,99052.81
2023-03-11T04:03:35.203Z,99060.81
2023-03-11T04:06:19.195Z,99070.03
2023-03-11T04:08:46.153Z,99074.56
2023-03-11T04:11:13.506Z,99089.38
2023-03-11T04:13:40.304Z,99100.94
2023-03-11T04:16:07.885Z,99100.00
2023-03-11T04:18:35.262Z,99106.56
2023-03-11T04:21:06.480Z,99117.56
2023-03-11T04:23:33.455Z,99118.03
2023-03-11T04:26:00.505Z,99128.91
2023-03-11T04:28:27.465Z,99132.16
2023-03-11T04:30:54.101Z,99136.81
2023-03-11T04:33:20.729Z,99136.69
2023-03-11T04:35:47.232Z,99141.56
2023-03-11T04:38:13.786Z,99154.63
2023-03-11T04:40:40.383Z,99157.25
2023-03-11T04:43:07.112Z,99162.97
2023-03-11T04:45:33.601Z,99180.63
2023-03-11T04:48:00.116Z,99186.25
2023-03-11T04:50:26.688Z,99191.88
2023-03-11T04:52:53.144Z,99199.75
2023-03-11T04:55:19.777Z,99200.22
2023-03-11T04:57:46.269Z,99215.31
2023-03-11T05:00:15.571Z,99206.78
2023-03-11T05:02:42.371Z,99228.44
2023-03-11T05:05:10.113Z,99227.56
2023-03-11T05:07:37.159Z,99238.91
2023-03-11T05:10:04.980Z,99245.63
2023-03-11T05:12:31.608Z,99256.16
2023-03-11T05:14:58.099Z,99255.28
2023-03-11T05:17:24.905Z,99269.16
2023-03-11T05:19:54.074Z,99272.16
2023-03-11T05:22:21.141Z,99278.63
2023-03-11T05:24:48.152Z,99287.09
2023-03-11T05:27:17.935Z,99297.50
2023-03-11T05:29:45.117Z,99303.72
2023-03-11T05:32:13.060Z,99297.72
2023-03-11T05:34:39.666Z,99320.44
2023-03-11T05:37:06.428Z,99317.44
2023-03-11T05:39:33.436Z,99323.53
2023-03-11T05:41:59.924Z,99334.13
2023-03-11T05:44:26.391Z,99342.56
2023-03-11T05:46:52.956Z,99348.34
2023-03-11T05:49:21.310Z,99348.03
2023-03-11T05:51:48.677Z,99358.03
2023-03-11T05:54:15.352Z,99363.09
2023-03-11T05:56:43.776Z,99363.19
2023-03-11T05:59:11.809Z,99376.13
2023-03-11T06:01:39.342Z,99374.72
2023-03-11T06:04:06.079Z,99370.88
2023-03-11T06:06:32.875Z,99385.81
2023-03-11T06:08:59.511Z,99382.63
2023-03-11T06:11:26.892Z,99392.31
2023-03-11T06:13:57.722Z,99398.28
2023-03-11T06:16:25.156Z,99405.56
2023-03-11T06:18:52.256Z,99406.28
2023-03-11T06:21:24.221Z,99406.81
2023-03-11T06:23:50.957Z,99415.53
2023-03-11T06:26:20.394Z,99429.69
2023-03-11T06:28:47.832Z,99427.41
2023-03-11T06:31:20.613Z,99434.22
2023-03-11T06:33:48.369Z,99439.03
2023-03-11T06:36:16.822Z,99450.38
2023-03-11T06:38:43.873Z,99462.03
2023-03-11T06:41:10.800Z,99463.81
2023-03-11T06:43:37.509Z,99476.75
2023-03-11T06:46:12.208Z,99483.63
2023-03-11T06:48:39.243Z,99497.84
2023-03-11T06:51:06.727Z,99504.53
2023-03-11T06:53:33.930Z,99516.41
2023-03-11T06:56:04.287Z,99518.69
2023-03-11T06:58:32.426Z,99516.72
2023-03-11T07:01:02.931Z,99524.56
2023-03-11T07:03:30.254Z,99536.47
2023-03-11T07:05:58.109Z,99538.22
2023-03-11T07:08:25.243Z,99543.72
2023-03-11T07:11:14.681Z,99543.28
2023-03-11T07:13:41.582Z,99552.03
2023-03-11T07:16:11.234Z,99547.13
2023-03-11T07:18:37.908Z,99564.75
2023-03-11T07:21:06.761Z,99573.19
2023-03-11T07:23:34.272Z,99583.44
2023-03-11T07:26:01.072Z,99593.88
2023-03-11T07:28:29.025Z,99596.06
2023-03-11T07:30:55.715Z,99601.00
2023-03-11T07:33:24.049Z,99604.00
2023-03-11T07:35:51.182Z,99610.34
2023-03-11T07:38:18.160Z,99618.44
2023-03-11T07:40:44.625Z,99628.59
2023-03-11T07:43:11.082Z,99623.41
2023-03-11T07:45:37.771Z,99632.03
2023-03-11T07:48:04.748Z,99641.03
2023-03-11T07:50:31.187Z,99651.53
2023-03-11T07:52:57.666Z,99646.63
2023-03-11T07:55:24.158Z,99658.50
2023-03-11T07:57:51.674Z,99661.22
2023-03-11T08:00:18.668Z,99667.75
2023-03-11T08:02:45.269Z,99675.69
2023-03-11T08:05:11.988Z,99683.03
2023-03-11T08:07:38.814Z,99687.56
2023-03-11T08:10:05.647Z,99687.88
2023-03-11T08:12:32.129Z,99693.81
2023-03-11T08:14:58.538Z,99703.75
2023-03-11T08:17:24.987Z,99698.63
2023-03-11T08:19:51.604Z,99711.72
2023-03-11T08:22:18.084Z,99717.44
2023-03-11T08:24:44.579Z,99725.84
2023-03-11T08:27:12.360Z,99716.63
2023-03-11T08:29:38.904Z,99732.50
2023-03-11T08:32:05.801Z,99745.22
2023-03-11T08:34:32.952Z,99750.16
2023-03-11T08:36:59.596Z,99752.88
2023-03-11T08:39:26.009Z,99749.78
2023-03-11T08:41:52.475Z,99759.72
2023-03-11T08:44:18.975Z,99766.19
2023-03-11T08:46:45.741Z,99771.81
2023-03-11T08:49:12.217Z,99772.69
2023-03-11T08:51:38.687Z,99779.59
2023-03-11T08:54:05.701Z,99785.13
2023-03-11T08:56:32.442Z,99795.59
2023-03-11T08:58:59.423Z,99789.09
2023-03-11T09:01:26.007Z,99795.41
2023-03-11T09:03:52.754Z,99803.84
2023-03-11T09:06:19.934Z,99805.41
2023-03-11T09:08:47.657Z,99812.31
2023-03-11T09:11:15.806Z,99826.44
2023-03-11T09:13:43.040Z,99820.75
2023-03-11T09:16:14.512Z,99828.13
2023-03-11T09:18:40.900Z,99832.22
2023-03-11T09:21:07.818Z,99830.56
2023-03-11T09:23:34.481Z,99832.25
2023-03-11T09:26:00.945Z,99835.25
2023-03-11T09:28:27.494Z,99839.66
2023-03-11T09:30:54.000Z,99835.22
2023-03-11T09:33:20.477Z,99841.59
2023-03-11T09:35:46.970Z,99844.94
2023-03-11T09:38:13.489Z,99852.84
2023-03-11T09:40:52.153Z,99854.06
2023-03-11T09:43:58.121Z,99858.84
2023-03-11T09:46:36.786Z,99862.41
2023-03-11T09:49:09.540Z,99871.56
2023-03-11T09:51:43.228Z,99876.00
2023-03-11T09:54:11.767Z,99885.75
2023-03-11T09:56:40.063Z,99892.44
2023-03-11T09:59:16.954Z,99892.75
2023-03-11T10:01:47.027Z,99900.16
2023-03-11T10:04:20.200Z,99905.03
2023-03-11T10:06:47.934Z,99907.44
2023-03-11T10:09:39.660Z,99917.53
2023-03-11T10:12:09.668Z,99917.44
2023-03-11T10:14:54.384Z,99919.66
2023-03-11T10:17:34.278Z,99918.72
2023-03-11T10:20:14.382Z,99927.25
2023-03-11T10:23:00.607Z,99921.13
2023-03-11T10:25:54.906Z,99936.94
2023-03-11T10:28:26.685Z,99937.78
2023-03-11T10:31:20.268Z,99938.34
2023-03-11T10:33:52.338Z,99946.75
2023-03-11T10:36:27.217Z,99946.09
2023-03-11T10:38:55.652Z,99948.63
2023-03-11T10:41:31.138Z,99953.00
2023-03-11T10:44:05.996Z,99954.75
2023-03-11T10:46:32.650Z,99964.63
2023-03-11T10:48:59.107Z,99963.72
2023-03-11T10:51:35.039Z,99957.47
2023-03-11T10:54:03.482Z,99968.56
2023-03-11T10:56:39.140Z,99970.59
2023-03-11T10:59:22.926Z,99973.53
2023-03-11T11:02:00.739Z,99970.00
2023-03-11T11:04:35.947Z,99984.44
2023-03-11T11:07:22.745Z,99982.44
2023-03-11T11:10:11.745Z,99988.41
2023-03-11T11:12:51.530Z,99989.03
2023-03-11T11:15:29.708Z,99988.81
2023-03-11T11:17:59.918Z,99989.59
2023-03-11T11:20:28.155Z,99993.16
2023-03-11T11:22:57.991Z,99988.31
2023-03-11T11:25:36.698Z,99999.63
2023-03-11T11:28:18.281Z,99996.44
2023-03-11T11:30:52.736Z,100002.88
2023-03-11T11:33:31.613Z,100000.59
2023-03-11T11:36:02.062Z,100001.50
2023-03-11T11:38:30.165Z,100000.81
2023-03-11T11:41:01.553Z,100011.59
2023-03-11T11:43:27.985Z,100005.56
2023-03-11T11:46:02.097Z,99999.38
2023-03-11T11:48:44.947Z,99990.88
2023-03-11T11:51:36.520Z,100001.75
2023-03-11T11:54:25.446Z,100000.72
2023-03-11T11:56:52.015Z,99993.28
2023-03-11T11:59:23.026Z,99996.25
2023-03-11T12:02:07.024Z,100000.84
2023-03-11T12:04:58.115Z,100003.66
2023-03-11T12:07:51.212Z,99999.91
2023-03-11T12:10:26.948Z,99996.66
2023-03-11T12:13:16.652Z,100001.75
2023-03-11T12:16:06.357Z,100015.38
2023-03-11T12:18:38.837Z,100016.13
2023-03-11T12:21:29.372Z,100013.25
2023-03-11T12:24:17.589Z,100011.56
2023-03-11T12:26:47.185Z,100020.97
2023-03-11T12:29:19.882Z,100006.16
2023-03-11T12:31:47.694Z,100009.38
2023-03-11T12:34:17.599Z,100023.28
2023-03-11T12:36:46.934Z,100023.38
2023-03-11T12:39:28.628Z,100027.75
2023-03-11T12:42:13.746Z,100028.19
2023-03-11T12:44:41.140Z,100038.09
2023-03-11T12:47:07.504Z,100029.69
2023-03-11T12:49:36.986Z,100037.59
2023-03-11T12:52:12.395Z,100045.56
2023-03-11T12:54:45.635Z,100045.31
2023-03-11T12:57:18.013Z,100042.88
2023-03-11T13:00:18.064Z,100047.03
2023-03-11T13:03:11.460Z,100040.50
2023-03-11T13:06:10.218Z,100041.78
2023-03-11T13:08:50.223Z,100049.94
2023-03-11T13:11:32.005Z,100046.53
2023-03-11T13:14:17.262Z,100044.25
2023-03-11T13:16:47.435Z,100048.19
2023-03-11T13:19:35.281Z,100052.00
2023-03-11T13:22:04.288Z,100070.50
2023-03-11T13:24:31.590Z,100072.06
2023-03-11T13:27:09.956Z,100078.22
2023-03-11T13:30:16.111Z,100078.56
2023-03-11T13:33:22.826Z,100091.97
2023-03-11T13:36:08.568Z,100094.41
2023-03-11T13:38:43.439Z,100102.38
2023-03-11T13:41:34.899Z,100092.59
2023-03-11T13:44:30.566Z,100100.97
2023-03-11T13:47:02.793Z,100100.38
2023-03-11T13:49:41.192Z,100106.31
2023-03-11T13:52:12.690Z,100103.56
2023-03-11T13:54:45.009Z,100104.25
2023-03-11T13:57:25.784Z,100119.31
2023-03-11T13:59:54.275Z,100116.34
2023-03-11T14:02:24.171Z,100122.31
2023-03-11T14:05:03.619Z,100116.44
2023-03-11T14:07:34.274Z,100118.63
2023-03-11T14:10:23.599Z,100118.06
2023-03-11T14:12:50.643Z,100126.03
2023-03-11T14:15:27.370Z,100129.25
2023-03-11T14:17:54.365Z,100123.28
2023-03-11T14:20:25.160Z,100123.69
2023-03-11T14:22:54.126Z,100124.47
2023-03-11T14:25:26.165Z,100124.19
2023-03-11T14:27:57.099Z,100140.50
2023-03-11T14:30:27.234Z,100133.34
2023-03-11T14:33:15.635Z,100136.88
2023-03-11T14:35:52.474Z,100143.91
2023-03-11T14:38:24.586Z,100141.88
2023-03-11T14:40:55.341Z,100150.44
2023-03-11T14:43:22.324Z,100148.47
2023-03-11T14:45:50.985Z,100147.72
2023-03-11T14:48:23.529Z,100152.44
2023-03-11T14:50:50.693Z,100153.63
2023-03-11T14:53:40.775Z,100152.09
2023-03-11T14:56:13.409Z,100150.50
2023-03-11T14:59:11.488Z,100153.53
2023-03-11T15:01:41.055Z,100155.50
2023-03-11T15:04:32.840Z,100155.47
2023-03-11T15:07:00.142Z,100151.69
2023-03-11T15:09:28.596Z,100151.09
2023-03-11T15:12:00.102Z,100153.69
2023-03-11T15:14:37.060Z,100159.59
2023-03-11T15:17:41.134Z,100159.63
2023-03-11T15:20:23.669Z,100158.69
2023-03-11T15:23:01.199Z,100161.66
2023-03-11T15:25:31.497Z,100170.06
2023-03-11T15:27:58.079Z,100161.94
2023-03-11T15:30:31.003Z,100166.06
2023-03-11T15:32:59.042Z,100162.69
2023-03-11T15:35:30.835Z,100169.97
2023-03-11T15:38:12.674Z,100170.50
2023-03-11T15:40:45.671Z,100173.53
2023-03-11T15:43:15.506Z,100174.94
2023-03-11T15:45:43.341Z,100179.38
2023-03-11T15:48:11.480Z,100186.75
2023-03-11T15:50:54.836Z,100184.63
2023-03-11T15:53:23.251Z,100193.59
2023-03-11T15:55:50.070Z,100199.41
2023-03-11T15:58:19.229Z,100197.41
2023-03-11T16:00:55.971Z,100199.06
2023-03-11T16:03:23.357Z,100186.22
2023-03-11T16:05:49.768Z,100196.97
2023-03-11T16:08:16.970Z,100198.88
2023-03-11T16:10:43.853Z,100203.19
2023-03-11T16:13:12.928Z,100210.78
2023-03-11T16:15:39.609Z,100213.72
2023-03-11T16:18:10.024Z,100229.75
2023-03-11T16:20:41.311Z,100220.03
2023-03-11T16:23:15.308Z,100226.56
2023-03-11T16:25:42.104Z,100226.38
2023-03-11T16:28:12.910Z,100226.66
2023-03-11T16:30:39.503Z,100237.41
2023-03-11T16:33:05.986Z,100233.38
2023-03-11T16:35:33.118Z,100241.66
2023-03-11T16:37:59.695Z,100246.91
2023-03-11T16:40:28.826Z,100245.63
2023-03-11T16:43:01.759Z,100249.28
2023-03-11T16:45:28.210Z,100249.50
2023-03-11T16:47:54.709Z,100252.56
2023-03-11T16:50:24.240Z,100257.31
2023-03-11T16:52:55.074Z,100256.75
2023-03-11T16:55:21.998Z,100260.72
2023-03-11T16:57:49.061Z,100265.44
2023-03-11T17:00:18.034Z,100263.00
2023-03-11T17:02:44.828Z,100272.13
2023-03-11T17:05:11.540Z,100276.53
2023-03-11T17:07:39.599Z,100275.06
2023-03-11T17:10:07.528Z,100273.91
2023-03-11T17:12:33.979Z,100285.78
2023-03-11T17:15:00.726Z,100292.88
2023-03-11T17:17:27.244Z,100292.91
2023-03-11T17:19:53.723Z,100293.94
2023-03-11T17:22:20.229Z,100293.38
2023-03-11T17:24:46.835Z,100291.22
2023-03-11T17:27:13.392Z,100304.38
2023-03-11T17:29:39.894Z,100297.34
2023-03-11T17:32:06.849Z,100303.81
2023-03-11T17:34:33.498Z,100303.81
2023-03-11T17:36:59.982Z,100302.50
2023-03-11T17:39:26.500Z,100308.13
2023-03-11T17:41:53.006Z,100305.78
2023-03-11T17:44:19.440Z,100311.41
2023-03-11T17:46:45.997Z,100308.78
2023-03-11T17:49:14.652Z,100314.81
2023-03-11T17:51:41.130Z,100311.34
2023-03-11T17:54:07.589Z,100314.72
2023-03-11T17:56:34.143Z,100313.78
2023-03-11T17:59:00.806Z,100325.19
2023-03-11T18:01:28.347Z,100325.81
2023-03-11T18:03:55.189Z,100325.84
2023-03-11T18:06:22.286Z,100328.78
2023-03-11T18:08:49.329Z,100330.28
2023-03-11T18:11:19.300Z,100334.03
2023-03-11T18:13:45.951Z,100327.47
2023-03-11T18:16:15.202Z,100341.25
2023-03-11T18:18:42.753Z,100336.06
2023-03-11T18:21:13.055Z,100341.03
2023-03-11T18:23:40.265Z,100343.22
2023-03-11T18:26:08.361Z,100339.81
2023-03-11T18:28:35.914Z,100347.72
2023-03-11T18:31:10.814Z,100347.16
2023-03-11T18:33:38.322Z,100348.75
2023-03-11T18:36:16.947Z,100347.63
2023-03-11T18:38:43.799Z,100350.31
2023-03-11T18:41:10.732Z,100349.84
2023-03-11T18:43:37.911Z,100349.56
2023-03-11T18:46:09.363Z,100359.69
2023-03-11T18:48:35.808Z,100349.94
2023-03-11T18:51:02.338Z,100352.38
2023-03-11T18:53:28.801Z,100353.78
2023-03-11T18:56:00.036Z,100359.81
2023-03-11T18:58:26.521Z,100370.50
2023-03-11T19:00:53.047Z,100361.75
2023-03-11T19:03:19.518Z,100362.22
2023-03-11T19:05:50.881Z,100360.44
2023-03-11T19:08:17.271Z,100360.09
2023-03-11T19:10:43.824Z,100350.25
2023-03-11T19:13:10.682Z,100361.91
2023-03-11T19:15:41.607Z,100365.00
2023-03-11T19:18:08.762Z,100363.09
2023-03-11T19:20:35.722Z,100367.16
2023-03-11T19:23:02.692Z,100370.38
2023-03-11T19:25:29.217Z,100365.50
2023-03-11T19:27:56.612Z,100373.28
2023-03-11T19:30:23.391Z,100364.38
2023-03-11T19:32:53.012Z,100366.31
2023-03-11T19:35:21.033Z,100359.25
2023-03-11T19:37:48.166Z,100365.69
2023-03-11T19:40:16.258Z,100371.28
2023-03-11T19:42:43.236Z,100364.50
2023-03-11T19:45:10.319Z,100382.28
2023-03-11T19:47:37.207Z,100376.47
2023-03-11T19:50:03.953Z,100378.41
2023-03-11T19:52:30.435Z,100380.44
2023-03-11T19:54:57.251Z,100380.63
2023-03-11T19:57:23.768Z,100381.78
2023-03-11T19:59:50.620Z,100378.50
2023-03-11T20:02:17.139Z,100376.19
2023-03-11T20:04:43.696Z,100367.03
2023-03-11T20:07:10.274Z,100374.13
2023-03-11T20:09:36.859Z,100367.22
2023-03-11T20:12:03.443Z,100372.34
2023-03-11T20:14:30.023Z,100372.75
2023-03-11T20:16:56.467Z,100369.84
2023-03-11T20:19:23.021Z,100369.84
2023-03-11T20:21:49.658Z,100378.94
2023-03-11T20:24:16.267Z,100371.41
2023-03-11T20:26:45.328Z,100369.88
2023-03-11T20:29:12.190Z,100374.69
2023-03-11T20:31:39.198Z,100371.41
2023-03-11T20:34:05.858Z,100377.59
2023-03-11T20:36:33.664Z,100377.31
2023-03-11T20:39:00.585Z,100385.81
2023-03-11T20:41:35.747Z,100379.50
2023-03-11T20:44:02.267Z,100376.81
2023-03-11T20:46:28.867Z,100392.16
2023-03-11T20:48:55.431Z,100386.88
2023-03-11T20:51:24.249Z,100386.03
2023-03-11T20:53:50.862Z,100376.72
2023-03-11T20:56:23.133Z,100379.31
2023-03-11T20:58:53.139Z,100386.28
2023-03-11T21:01:26.816Z,100379.00
2023-03-11T21:03:55.212Z,100388.22
2023-03-11T21:06:32.464Z,100384.94
2023-03-11T21:09:01.300Z,100387.50
2023-03-11T21:11:28.373Z,100376.22
2023-03-11T21:13:55.532Z,100381.63
2023-03-11T21:16:22.750Z,100372.78
2023-03-11T21:18:49.803Z,100373.47
2023-03-11T21:21:17.828Z,100371.63
2023-03-11T21:23:46.904Z,100382.78
2023-03-11T21:26:15.153Z,100385.53
2023-03-11T21:28:46.513Z,100376.88
2023-03-11T21:31:22.784Z,100382.47
2023-03-11T21:33:53.121Z,100380.28
2023-03-11T21:36:19.844Z,100384.41
2023-03-11T21:38:47.580Z,100384.66
2023-03-11T21:41:25.661Z,100380.00
2023-03-11T21:43:54.098Z,100374.94
2023-03-11T21:46:24.461Z,100373.84
2023-03-11T21:48:51.587Z,100379.78
2023-03-11T21:51:19.249Z,100380.78
2023-03-11T21:53:46.503Z,100372.78
2023-03-11T21:56:13.547Z,100369.66
2023-03-11T21:58:40.656Z,100369.16
2023-03-11T22:01:08.260Z,100359.44
2023-03-11T22:03:36.192Z,100364.00
2023-03-11T22:06:09.904Z,100373.84
2023-03-11T22:08:36.675Z,100360.78
2023-03-11T22:11:07.613Z,100357.03
2023-03-11T22:13:34.232Z,100365.78
2023-03-11T22:16:06.342Z,100366.63
2023-03-11T22:18:33.306Z,100365.69
2023-03-11T22:21:00.472Z,100351.19
2023-03-11T22:23:27.822Z,100355.34
2023-03-11T22:25:54.401Z,100357.13
2023-03-11T22:28:20.905Z,100354.56
2023-03-11T22:30:47.349Z,100361.97
2023-03-11T22:33:13.945Z,100367.88
2023-03-11T22:35:40.710Z,100369.16
2023-03-11T22:38:07.177Z,100368.03
2023-03-11T22:40:35.071Z,100370.59
2023-03-11T22:43:01.583Z,100368.09
2023-03-11T22:45:28.033Z,100367.22
2023-03-11T22:47:54.868Z,100379.00
2023-03-11T22:50:21.765Z,100375.19
2023-03-11T22:52:48.284Z,100370.72
2023-03-11T22:55:14.748Z,100371.28
2023-03-11T22:57:41.200Z,100366.53
2023-03-11T23:00:17.064Z,100374.97
2023-03-11T23:02:45.254Z,100370.28
2023-03-11T23:05:13.860Z,100373.69
2023-03-11T23:07:40.809Z,100374.53
2023-03-11T23:10:08.937Z,100365.78
2023-03-11T23:12:36.613Z,100368.44
2023-03-11T23:15:06.020Z,100369.84
2023-03-11T23:17:32.614Z,100371.28
2023-03-11T23:19:59.803Z,100376.22
2023-03-11T23:22:26.532Z,100377.06
2023-03-11T23:24:53.155Z,100384.19
2023-03-11T23:27:19.697Z,100376.88
2023-03-11T23:29:47.789Z,100372.00
2023-03-11T23:32:14.400Z,100383.41
2023-03-11T23:34:41.063Z,100382.19
2023-03-11T23:37:07.533Z,100381.84
2023-03-11T23:39:33.964Z,100379.78
2023-03-11T23:42:02.037Z,100376.22
2023-03-11T23:44:28.644Z,100377.00
2023-03-11T23:46:55.287Z,100379.44
2023-03-11T23:49:21.933Z,100388.94
2023-03-11T23:51:48.387Z,100392.81
2023-03-11T23:54:14.868Z,100381.81
2023-03-11T23:56:42.878Z,100385.22
2023-03-11T23:59:09.364Z,100381.72
